Hauptseite
METAR-TAF:

METAR-TAF

Flughäfen :

Flughafen Nador

Nador, Marokko

Breite: 34-59-20N, Länge: 003-01-42W, Höhe: 175 m

Beobachtung

Neuester Wetterbericht von vor 1 Stunde und 11 Minuten, um 20:00 UTC
Wind 2 kt aus unterschiedlichen Richtungen
Temperatur 11°C
Luftfeuchtigkeit 94%
Luftdruck 1024 hPa
Sichtweite: 6000 m
Durchbrochene Bewölkung in der Höhe von 700 ft

METAR: GMMW 072000Z VRB02KT 6000 BKN007 11/10 Q1024 NOSIG

Zeit: 22:11 (21:11 UTC)

Prognose

Neuester Wetterbericht von vor 4 Stunden und 11 Minuten, um 17:00 UTC
Gültige Prognose vom 07 um 18 UTC bis 08 um 24 UTC
Wind 5 kt aus Nordost
Sichtweite: 6000 m
Leicht bewölkt in der Höhe von 1000 ft
Wahrscheinlichkeit 40%
vom 08 um 00 UTC bis 08 um 09 UTC
Sichtweite: 2000 m
feuchter Dunst

TAF: GMMW 071700Z 0718/0824 04005KT 6000 FEW010 PROB40 0800/0809 2000 BR

Wetterbeobachtungen und Prognosen von mehr als 4000 Flughäfen (METAR und TAF Bericht).

Die verfügbaren Stationen werden durch gelbe und rote Markierungen auf der Karte dargestellt.

Führen Sie die Maus auf sie, um den Namen der Station zu sehen.

Darauf klicken, um die Beobachtung von Wetterbeobachtungen und Prognosen zu sehen.

Um die Karte zu ändern : klicken Sie auf den grünen Tasten mit einem schwarzen Kreuz Zum Vergrößern, auf den grünen Button mit einem Gedankenstrich zu verkleinern, oder auf die grünen Pfeile für benachbarte Karten.


METAR-TAF: